Time;durP1;ratioP1;P1;durP2;ratioP2;P2;SDS_P1;SDS_P2;PMS_P1;PMS_P2;Temp;Humidity;BMP_temperature;BMP_pressure;BME280_temperature;BME280_humidity;BME280_pressure;Samples;Min_cycle;Max_cycle;Signal;HPM_P1;HPM_P2
2022/03/02 00:01:01;;;;;;;15.33;9.17;;;;;;;;;;5096334;28;20692;-62
2022/03/02 00:03:27;;;;;;;13.90;9.57;;;;;;;;;;5096424;28;20172;-62
2022/03/02 00:05:53;;;;;;;21.93;11.47;;;;;;;;;;5096513;28;20536;-62
2022/03/02 00:08:20;;;;;;;15.33;10.87;;;;;;;;;;5096168;28;20185;-62
2022/03/02 00:10:46;;;;;;;16.97;10.77;;;;;;;;;;5095928;28;20193;-62
2022/03/02 00:13:12;;;;;;;17.50;11.37;;;;;;;;;;5096243;28;20264;-62
2022/03/02 00:15:38;;;;;;;13.00;9.47;;;;;;;;;;5095891;28;20235;-62
2022/03/02 00:18:04;;;;;;;15.97;9.77;;;;;;;;;;5095940;28;20177;-62
2022/03/02 00:20:30;;;;;;;18.27;9.97;;;;;;;;;;5077732;28;20197;-62
2022/03/02 00:22:56;;;;;;;14.50;9.40;;;;;;;;;;5077881;28;20563;-62
2022/03/02 00:25:22;;;;;;;22.90;10.40;;;;;;;;;;5097025;28;20188;-62
2022/03/02 00:27:49;;;;;;;16.17;9.83;;;;;;;;;;5098710;28;20181;-62
2022/03/02 00:30:15;;;;;;;16.53;9.30;;;;;;;;;;5100825;28;20273;-62
2022/03/02 00:32:41;;;;;;;13.97;9.87;;;;;;;;;;5104206;28;20196;-63
2022/03/02 00:35:07;;;;;;;16.87;9.63;;;;;;;;;;5104241;28;20184;-62
2022/03/02 00:37:33;;;;;;;14.37;8.90;;;;;;;;;;5104843;28;20182;-62
2022/03/02 00:39:59;;;;;;;14.90;9.87;;;;;;;;;;5102041;28;20193;-62
2022/03/02 00:42:25;;;;;;;14.03;9.00;;;;;;;;;;5101005;28;20212;-62
2022/03/02 00:44:51;;;;;;;17.57;8.90;;;;;;;;;;5099354;28;20173;-62
2022/03/02 00:47:17;;;;;;;16.63;9.13;;;;;;;;;;5099628;28;20169;-62
2022/03/02 00:49:44;;;;;;;13.83;8.63;;;;;;;;;;5099968;28;20201;-62
2022/03/02 00:52:10;;;;;;;13.27;9.27;;;;;;;;;;5099824;28;20173;-62
2022/03/02 00:54:37;;;;;;;18.47;9.60;;;;;;;;;;5097954;28;20173;-62
2022/03/02 00:57:03;;;;;;;19.30;8.80;;;;;;;;;;5099770;28;20178;-62
2022/03/02 00:59:29;;;;;;;12.37;8.93;;;;;;;;;;5098820;28;20220;-62
2022/03/02 01:01:55;;;;;;;16.23;8.53;;;;;;;;;;5080963;28;20204;-62
2022/03/02 01:04:21;;;;;;;17.30;9.60;;;;;;;;;;5100525;28;20181;-62
2022/03/02 01:06:47;;;;;;;11.27;7.87;;;;;;;;;;5104139;28;20675;-62
2022/03/02 01:09:13;;;;;;;11.07;7.80;;;;;;;;;;5112319;28;20169;-62
2022/03/02 01:11:39;;;;;;;10.93;7.97;;;;;;;;;;5112537;28;20241;-63
2022/03/02 01:14:05;;;;;;;14.27;8.13;;;;;;;;;;5111760;28;20185;-62
2022/03/02 01:16:32;;;;;;;11.47;8.00;;;;;;;;;;5102059;28;20235;-62
2022/03/02 01:18:58;;;;;;;11.93;7.87;;;;;;;;;;5079643;28;20185;-62
2022/03/02 01:21:24;;;;;;;15.13;7.93;;;;;;;;;;5097782;28;20571;-62
2022/03/02 01:23:53;;;;;;;11.57;7.90;;;;;;;;;;5096857;28;20177;-62
2022/03/02 01:26:19;;;;;;;11.83;7.97;;;;;;;;;;5096530;28;20256;-62
2022/03/02 01:28:45;;;;;;;14.70;8.53;;;;;;;;;;5095690;28;20606;-61
2022/03/02 01:31:11;;;;;;;10.13;7.80;;;;;;;;;;5095415;28;20197;-62
2022/03/02 01:33:37;;;;;;;12.40;8.10;;;;;;;;;;5095162;28;20259;-61
2022/03/02 01:36:03;;;;;;;10.97;7.23;;;;;;;;;;5094832;28;20184;-62
2022/03/02 01:38:29;;;;;;;10.97;7.27;;;;;;;;;;5076887;28;20234;-62
2022/03/02 01:40:55;;;;;;;12.93;8.40;;;;;;;;;;5076415;28;20237;-62
2022/03/02 01:43:21;;;;;;;10.60;7.57;;;;;;;;;;5095011;28;20180;-62
2022/03/02 01:45:47;;;;;;;9.90;7.07;;;;;;;;;;5094807;28;20205;-62
2022/03/02 01:48:13;;;;;;;10.17;7.70;;;;;;;;;;5094582;28;20543;-62
2022/03/02 01:50:39;;;;;;;12.20;7.70;;;;;;;;;;5094465;28;20202;-62
2022/03/02 01:53:05;;;;;;;13.47;8.17;;;;;;;;;;5094493;28;20185;-62
2022/03/02 01:55:31;;;;;;;11.90;7.47;;;;;;;;;;5094573;28;20181;-62
2022/03/02 01:57:58;;;;;;;13.27;8.07;;;;;;;;;;5076000;28;20184;-61
2022/03/02 02:00:24;;;;;;;9.33;7.20;;;;;;;;;;5094266;28;20219;-62
2022/03/02 02:02:51;;;;;;;12.07;7.97;;;;;;;;;;5075911;28;20297;-63
2022/03/02 02:05:17;;;;;;;15.73;7.77;;;;;;;;;;5093890;28;20238;-63
2022/03/02 02:07:44;;;;;;;12.60;8.13;;;;;;;;;;5075649;28;20173;-62
2022/03/02 02:10:10;;;;;;;11.57;7.53;;;;;;;;;;5075916;28;20201;-62
2022/03/02 02:12:37;;;;;;;12.17;8.07;;;;;;;;;;5093887;28;20609;-62
2022/03/02 02:15:04;;;;;;;13.53;7.83;;;;;;;;;;5093834;28;20668;-62
2022/03/02 02:17:30;;;;;;;11.03;7.80;;;;;;;;;;5093863;28;20184;-62
2022/03/02 02:19:56;;;;;;;14.00;7.50;;;;;;;;;;5093765;28;20204;-62
2022/03/02 02:22:22;;;;;;;13.07;8.10;;;;;;;;;;5075665;28;20664;-62
2022/03/02 02:24:48;;;;;;;11.47;7.53;;;;;;;;;;5093789;28;20178;-62
2022/03/02 02:27:15;;;;;;;12.17;8.00;;;;;;;;;;5093558;28;20173;-62
2022/03/02 02:29:42;;;;;;;9.67;7.70;;;;;;;;;;5093741;28;20197;-62
2022/03/02 02:32:08;;;;;;;11.93;8.47;;;;;;;;;;5093709;28;20696;-62
2022/03/02 02:34:34;;;;;;;11.40;7.90;;;;;;;;;;5075753;28;20181;-62
2022/03/02 02:37:00;;;;;;;12.40;7.20;;;;;;;;;;5093578;28;20177;-62
2022/03/02 02:39:27;;;;;;;17.77;7.87;;;;;;;;;;5093393;28;20749;-62
2022/03/02 02:41:53;;;;;;;10.93;8.23;;;;;;;;;;5093858;28;20614;-62
2022/03/02 02:44:19;;;;;;;13.70;8.70;;;;;;;;;;5075362;28;20173;-62
2022/03/02 02:46:45;;;;;;;16.93;8.40;;;;;;;;;;5093362;28;20166;-62
2022/03/02 02:49:12;;;;;;;15.07;8.90;;;;;;;;;;5093773;28;20185;-62
2022/03/02 02:51:38;;;;;;;12.70;9.10;;;;;;;;;;5093240;28;20177;-62
2022/03/02 02:54:04;;;;;;;14.97;9.13;;;;;;;;;;5093196;28;20637;-62
2022/03/02 02:56:30;;;;;;;14.47;9.00;;;;;;;;;;5095219;28;20240;-61
2022/03/02 02:58:56;;;;;;;12.43;8.80;;;;;;;;;;5076723;28;20220;-61
2022/03/02 03:01:22;;;;;;;11.67;8.47;;;;;;;;;;5094737;28;20209;-62
2022/03/02 03:03:49;;;;;;;13.77;9.80;;;;;;;;;;5095093;28;20199;-62
2022/03/02 03:06:15;;;;;;;13.00;9.30;;;;;;;;;;5077064;28;20177;-62
2022/03/02 03:08:41;;;;;;;13.10;8.93;;;;;;;;;;5079012;28;20173;-62
2022/03/02 03:11:07;;;;;;;16.40;9.97;;;;;;;;;;5080454;28;20772;-62
2022/03/02 03:13:33;;;;;;;15.50;10.13;;;;;;;;;;5097704;28;20174;-62
2022/03/02 03:15:59;;;;;;;14.17;8.97;;;;;;;;;;5096927;28;20704;-62
2022/03/02 03:18:25;;;;;;;16.23;10.60;;;;;;;;;;5096863;28;20177;-62
2022/03/02 03:20:51;;;;;;;16.70;10.17;;;;;;;;;;5096670;28;20669;-62
2022/03/02 03:23:17;;;;;;;16.43;10.07;;;;;;;;;;5078572;28;20264;-62
2022/03/02 03:25:43;;;;;;;14.53;9.83;;;;;;;;;;5096724;28;20184;-62
2022/03/02 03:28:09;;;;;;;14.40;9.33;;;;;;;;;;5078353;28;20230;-62
2022/03/02 03:30:35;;;;;;;16.37;10.20;;;;;;;;;;5078171;28;20222;-62
2022/03/02 03:33:04;;;;;;;15.83;9.93;;;;;;;;;;5078297;28;20188;-62
2022/03/02 03:35:30;;;;;;;13.77;9.33;;;;;;;;;;5078234;28;20228;-62
2022/03/02 03:37:56;;;;;;;15.43;10.43;;;;;;;;;;5096745;28;20181;-63
2022/03/02 03:40:23;;;;;;;13.63;9.23;;;;;;;;;;5078126;28;20196;-62
2022/03/02 03:42:49;;;;;;;16.30;10.27;;;;;;;;;;5078010;28;20593;-62
2022/03/02 03:45:15;;;;;;;14.23;9.97;;;;;;;;;;5078066;28;20275;-62
2022/03/02 03:47:42;;;;;;;13.90;9.73;;;;;;;;;;5096133;28;20238;-62
2022/03/02 03:50:08;;;;;;;16.07;9.50;;;;;;;;;;5077827;28;20204;-61
2022/03/02 03:52:34;;;;;;;13.43;9.33;;;;;;;;;;5095885;28;20173;-62
2022/03/02 03:55:00;;;;;;;13.47;9.37;;;;;;;;;;5096215;28;20177;-62
2022/03/02 03:57:26;;;;;;;15.17;9.10;;;;;;;;;;5095912;28;20187;-62
2022/03/02 03:59:52;;;;;;;16.47;9.00;;;;;;;;;;5095927;28;20581;-62
2022/03/02 04:02:18;;;;;;;13.57;8.73;;;;;;;;;;5096339;28;20265;-62
2022/03/02 04:04:44;;;;;;;13.47;9.17;;;;;;;;;;5078960;28;20629;-62
2022/03/02 04:07:10;;;;;;;15.03;9.30;;;;;;;;;;5077537;28;20181;-62
2022/03/02 04:09:36;;;;;;;15.67;8.93;;;;;;;;;;5095619;28;20199;-62
2022/03/02 04:12:02;;;;;;;20.40;10.33;;;;;;;;;;5097148;28;20188;-62
2022/03/02 04:14:28;;;;;;;14.33;9.87;;;;;;;;;;5079116;28;20230;-62
2022/03/02 04:16:54;;;;;;;14.10;9.07;;;;;;;;;;5096307;28;20577;-62
2022/03/02 04:19:20;;;;;;;13.97;9.13;;;;;;;;;;5077317;28;20250;-62
2022/03/02 04:21:46;;;;;;;15.57;9.33;;;;;;;;;;5095440;28;20205;-62
2022/03/02 04:24:12;;;;;;;17.27;9.77;;;;;;;;;;5095631;28;20551;-61
2022/03/02 04:26:38;;;;;;;12.73;8.97;;;;;;;;;;5095909;28;20173;-62
2022/03/02 04:29:04;;;;;;;14.40;8.97;;;;;;;;;;5077263;28;20181;-62
2022/03/02 04:31:30;;;;;;;15.30;9.37;;;;;;;;;;5096219;28;20181;-62
2022/03/02 04:33:56;;;;;;;16.73;9.93;;;;;;;;;;5095643;28;20208;-62
2022/03/02 04:36:22;;;;;;;14.73;9.43;;;;;;;;;;5095518;28;20185;-61
2022/03/02 04:38:48;;;;;;;15.77;9.67;;;;;;;;;;5077685;28;20184;-61
2022/03/02 04:41:14;;;;;;;16.33;9.47;;;;;;;;;;5077253;28;20213;-62
2022/03/02 04:43:40;;;;;;;16.33;10.10;;;;;;;;;;5076959;28;20196;-62
2022/03/02 04:46:06;;;;;;;15.83;9.93;;;;;;;;;;5077220;28;20272;-61
2022/03/02 04:48:32;;;;;;;12.20;9.00;;;;;;;;;;5076846;28;20181;-62
2022/03/02 04:50:58;;;;;;;13.33;9.33;;;;;;;;;;5095448;28;20193;-61
2022/03/02 04:53:24;;;;;;;14.57;9.10;;;;;;;;;;5095397;28;20259;-62
2022/03/02 04:55:50;;;;;;;15.70;9.73;;;;;;;;;;5094844;28;20173;-62
2022/03/02 04:58:16;;;;;;;12.53;9.13;;;;;;;;;;5076751;28;20181;-62
2022/03/02 05:00:42;;;;;;;12.90;8.47;;;;;;;;;;5094908;28;20215;-62
2022/03/02 05:03:09;;;;;;;16.87;9.07;;;;;;;;;;5094861;28;20473;-62
2022/03/02 05:05:36;;;;;;;14.57;8.83;;;;;;;;;;5094807;28;20218;-62
2022/03/02 05:08:02;;;;;;;15.70;9.33;;;;;;;;;;5076450;28;20275;-62
2022/03/02 05:10:29;;;;;;;13.50;8.90;;;;;;;;;;5095033;28;20618;-62
2022/03/02 05:12:55;;;;;;;17.20;9.20;;;;;;;;;;5094780;28;20206;-63
2022/03/02 05:15:22;;;;;;;19.17;9.93;;;;;;;;;;5094972;28;20177;-63
2022/03/02 05:17:49;;;;;;;25.00;8.93;;;;;;;;;;5095118;28;20177;-62
2022/03/02 05:20:16;;;;;;;14.67;9.57;;;;;;;;;;5076049;28;20439;-62
2022/03/02 05:22:42;;;;;;;14.60;8.77;;;;;;;;;;5075997;28;20293;-61
2022/03/02 05:25:09;;;;;;;13.37;9.43;;;;;;;;;;5076077;28;20419;-62
2022/03/02 05:27:35;;;;;;;15.40;10.63;;;;;;;;;;5094417;28;20704;-62
2022/03/02 05:30:01;;;;;;;15.13;8.80;;;;;;;;;;5094601;28;20193;-62
2022/03/02 05:32:27;;;;;;;14.70;9.80;;;;;;;;;;5075195;28;20234;-62
2022/03/02 05:34:53;;;;;;;15.67;9.47;;;;;;;;;;5094226;28;20173;-62
2022/03/02 05:37:19;;;;;;;16.80;9.63;;;;;;;;;;5094341;28;20629;-62
2022/03/02 05:39:45;;;;;;;14.97;9.37;;;;;;;;;;5094352;28;20280;-61
2022/03/02 05:42:11;;;;;;;14.23;9.10;;;;;;;;;;5094228;28;20899;-62
2022/03/02 05:44:37;;;;;;;14.87;9.53;;;;;;;;;;5075969;28;20184;-62
2022/03/02 05:47:04;;;;;;;17.53;9.90;;;;;;;;;;5094583;28;20194;-61
2022/03/02 05:49:30;;;;;;;14.07;8.50;;;;;;;;;;5075844;28;20276;-62
2022/03/02 05:51:56;;;;;;;18.73;9.57;;;;;;;;;;5094454;28;20184;-62
2022/03/02 05:54:22;;;;;;;14.97;9.57;;;;;;;;;;5093973;28;20177;-62
2022/03/02 05:56:48;;;;;;;15.87;9.77;;;;;;;;;;5094372;28;20181;-61
2022/03/02 05:59:14;;;;;;;14.30;8.90;;;;;;;;;;5094389;28;20415;-61
2022/03/02 06:01:41;;;;;;;16.27;10.50;;;;;;;;;;5077605;28;20830;-61
2022/03/02 06:04:07;;;;;;;20.13;10.37;;;;;;;;;;5096391;28;20181;-62
2022/03/02 06:06:33;;;;;;;21.50;10.13;;;;;;;;;;5103344;28;20633;-61
2022/03/02 06:09:03;;;;;;;15.50;10.40;;;;;;;;;;5111827;28;20437;-61
2022/03/02 06:11:29;;;;;;;18.37;9.97;;;;;;;;;;5112701;28;20173;-63
2022/03/02 06:13:55;;;;;;;22.20;11.53;;;;;;;;;;5094823;28;20423;-62
2022/03/02 06:16:21;;;;;;;17.70;10.27;;;;;;;;;;5095206;28;20177;-62
2022/03/02 06:18:47;;;;;;;23.97;11.50;;;;;;;;;;5085428;28;20694;-62
2022/03/02 06:21:21;;;;;;;18.03;11.07;;;;;;;;;;5095911;28;20807;-62
2022/03/02 06:23:47;;;;;;;35.60;11.20;;;;;;;;;;5076891;28;20183;-62
2022/03/02 06:26:13;;;;;;;20.40;11.27;;;;;;;;;;5076502;28;20440;-62
2022/03/02 06:28:39;;;;;;;20.53;11.00;;;;;;;;;;5094429;28;20891;-62
2022/03/02 06:31:05;;;;;;;25.80;11.03;;;;;;;;;;5093887;28;20189;-62
2022/03/02 06:33:31;;;;;;;17.70;10.17;;;;;;;;;;5075513;28;20184;-61
2022/03/02 06:35:57;;;;;;;17.50;11.33;;;;;;;;;;5093802;28;20415;-62
2022/03/02 06:38:23;;;;;;;22.07;10.73;;;;;;;;;;5093991;28;20191;-62
2022/03/02 06:40:56;;;;;;;21.23;11.27;;;;;;;;;;5075647;28;20197;-62
2022/03/02 06:43:23;;;;;;;17.63;10.93;;;;;;;;;;5095609;28;20161;-61
2022/03/02 06:45:59;;;;;;;16.83;10.57;;;;;;;;;;5079997;28;20176;-61
2022/03/02 06:48:27;;;;;;;23.17;11.33;;;;;;;;;;5098473;28;20176;-62
2022/03/02 06:50:53;;;;;;;22.40;10.87;;;;;;;;;;5098915;28;20423;-62
2022/03/02 06:53:25;;;;;;;22.67;11.23;;;;;;;;;;5089612;28;20418;-62
2022/03/02 06:55:53;;;;;;;27.63;11.23;;;;;;;;;;5094524;28;20267;-62
2022/03/02 06:58:21;;;;;;;34.30;12.60;;;;;;;;;;5111194;28;20406;-62
2022/03/02 07:00:53;;;;;;;25.90;11.93;;;;;;;;;;5107683;28;20552;-62
2022/03/02 07:03:19;;;;;;;22.53;11.57;;;;;;;;;;5098171;28;20403;-62
2022/03/02 07:05:46;;;;;;;35.33;10.27;;;;;;;;;;5098591;28;20255;-62
2022/03/02 07:08:13;;;;;;;19.73;10.67;;;;;;;;;;5097383;28;20398;-62
2022/03/02 07:10:39;;;;;;;23.17;11.60;;;;;;;;;;5097614;28;20276;-62
2022/03/02 07:13:06;;;;;;;24.50;9.70;;;;;;;;;;5079110;28;20268;-62
2022/03/02 07:15:33;;;;;;;29.20;11.77;;;;;;;;;;5097162;28;20702;-61
2022/03/02 07:18:00;;;;;;;23.83;10.57;;;;;;;;;;5078944;28;20181;-62
2022/03/02 07:20:27;;;;;;;26.13;11.53;;;;;;;;;;5096809;28;20201;-61
2022/03/02 07:22:53;;;;;;;33.77;12.07;;;;;;;;;;5096826;28;20622;-62
2022/03/02 07:25:21;;;;;;;26.80;11.47;;;;;;;;;;5097307;28;20181;-62
2022/03/02 07:27:49;;;;;;;36.43;11.43;;;;;;;;;;5096750;28;20510;-62
2022/03/02 07:30:16;;;;;;;25.93;11.33;;;;;;;;;;5078597;28;20193;-62
2022/03/02 07:32:45;;;;;;;21.93;11.87;;;;;;;;;;5096638;28;20189;-61
2022/03/02 07:35:11;;;;;;;30.33;12.47;;;;;;;;;;5096871;28;20173;-61
2022/03/02 07:37:38;;;;;;;32.27;12.13;;;;;;;;;;5096613;28;20189;-61
2022/03/02 07:40:04;;;;;;;28.60;12.80;;;;;;;;;;5096536;28;20201;-61
2022/03/02 07:42:31;;;;;;;41.57;12.37;;;;;;;;;;5078309;28;20240;-61
2022/03/02 07:44:58;;;;;;;24.83;12.00;;;;;;;;;;5096814;28;20173;-61
2022/03/02 07:47:24;;;;;;;24.93;12.43;;;;;;;;;;5096620;28;20242;-61
2022/03/02 07:49:50;;;;;;;22.40;12.17;;;;;;;;;;5096281;28;20261;-63
2022/03/02 07:52:17;;;;;;;21.50;11.70;;;;;;;;;;5097663;28;20181;-61
2022/03/02 07:54:48;;;;;;;23.43;12.73;;;;;;;;;;5096791;28;20180;-62
2022/03/02 07:57:15;;;;;;;36.47;12.10;;;;;;;;;;5097933;28;20161;-61
2022/03/02 07:59:42;;;;;;;36.97;13.20;;;;;;;;;;5096124;28;20240;-62
2022/03/02 08:02:09;;;;;;;29.83;13.03;;;;;;;;;;5077949;28;20204;-62
2022/03/02 08:04:38;;;;;;;23.13;11.47;;;;;;;;;;5095941;28;20173;-62
2022/03/02 08:07:04;;;;;;;31.83;12.17;;;;;;;;;;5077896;28;20177;-62
2022/03/02 08:09:34;;;;;;;24.97;12.23;;;;;;;;;;5096066;28;20226;-62
2022/03/02 08:12:01;;;;;;;21.93;11.30;;;;;;;;;;5096175;28;20173;-62
2022/03/02 08:14:27;;;;;;;28.80;12.73;;;;;;;;;;5077784;28;20737;-62
2022/03/02 08:16:53;;;;;;;24.77;11.97;;;;;;;;;;5095746;28;20562;-62
2022/03/02 08:19:20;;;;;;;30.43;12.93;;;;;;;;;;5095729;28;20197;-62
2022/03/02 08:21:47;;;;;;;22.70;11.07;;;;;;;;;;5095709;28;20212;-62
2022/03/02 08:24:15;;;;;;;20.70;11.37;;;;;;;;;;5077714;28;20181;-62
2022/03/02 08:26:42;;;;;;;25.87;11.30;;;;;;;;;;5095684;28;20179;-62
2022/03/02 08:29:10;;;;;;;20.67;11.80;;;;;;;;;;5078579;28;20182;-62
2022/03/02 08:31:37;;;;;;;28.27;11.77;;;;;;;;;;5077357;28;20189;-62
2022/03/02 08:34:03;;;;;;;18.23;10.97;;;;;;;;;;5095396;28;20173;-62
2022/03/02 08:36:34;;;;;;;20.60;11.33;;;;;;;;;;5077238;28;20177;-62
2022/03/02 08:39:05;;;;;;;20.27;10.83;;;;;;;;;;5077315;28;20284;-61
2022/03/02 08:41:31;;;;;;;19.63;10.43;;;;;;;;;;5095532;28;20215;-62
2022/03/02 08:43:57;;;;;;;18.53;10.47;;;;;;;;;;5077114;28;20180;-62
2022/03/02 08:46:24;;;;;;;15.77;10.07;;;;;;;;;;5095414;28;20170;-62
2022/03/02 08:48:50;;;;;;;15.43;10.47;;;;;;;;;;5095167;28;20165;-62
2022/03/02 08:51:16;;;;;;;20.93;10.53;;;;;;;;;;5094816;28;20205;-62
2022/03/02 08:53:44;;;;;;;19.10;11.70;;;;;;;;;;5095299;28;20177;-61
2022/03/02 08:56:10;;;;;;;18.20;11.00;;;;;;;;;;5076711;28;20178;-61
2022/03/02 08:58:37;;;;;;;21.87;10.73;;;;;;;;;;5094758;28;20188;-62
2022/03/02 09:01:03;;;;;;;21.53;11.77;;;;;;;;;;5094855;28;20209;-62
2022/03/02 09:03:32;;;;;;;20.57;11.37;;;;;;;;;;5094816;28;20172;-62
2022/03/02 09:05:59;;;;;;;17.70;11.47;;;;;;;;;;5076836;28;20544;-62
2022/03/02 09:08:25;;;;;;;19.30;11.53;;;;;;;;;;5094545;28;20204;-62
2022/03/02 09:10:51;;;;;;;23.47;11.20;;;;;;;;;;5076422;28;20192;-62
2022/03/02 09:13:17;;;;;;;24.83;11.03;;;;;;;;;;5076500;28;20671;-62
2022/03/02 09:15:43;;;;;;;19.73;11.70;;;;;;;;;;5076550;28;20180;-62
2022/03/02 09:18:10;;;;;;;25.80;12.20;;;;;;;;;;5094384;28;20181;-62
2022/03/02 09:20:36;;;;;;;18.10;10.60;;;;;;;;;;5094409;28;20199;-62
2022/03/02 09:23:04;;;;;;;20.07;10.93;;;;;;;;;;5094412;28;20225;-62
2022/03/02 09:25:31;;;;;;;18.57;10.40;;;;;;;;;;5094301;28;20180;-62
2022/03/02 09:27:58;;;;;;;17.30;11.00;;;;;;;;;;5094342;28;20589;-63
2022/03/02 09:30:24;;;;;;;13.67;9.10;;;;;;;;;;5094309;28;20301;-62
2022/03/02 09:32:54;;;;;;;16.97;9.40;;;;;;;;;;5094304;28;20176;-62
2022/03/02 09:35:21;;;;;;;13.57;9.93;;;;;;;;;;5094372;28;20169;-62
2022/03/02 09:37:53;;;;;;;14.43;9.07;;;;;;;;;;5075853;28;20207;-62
2022/03/02 09:40:22;;;;;;;14.03;8.63;;;;;;;;;;5076011;28;20691;-62
2022/03/02 09:42:54;;;;;;;11.60;8.60;;;;;;;;;;5093990;28;20200;-62
2022/03/02 09:45:21;;;;;;;13.73;8.03;;;;;;;;;;5094298;28;20644;-62
2022/03/02 09:47:50;;;;;;;9.17;7.60;;;;;;;;;;5094003;28;20265;-62
2022/03/02 09:50:17;;;;;;;18.57;8.60;;;;;;;;;;5093985;28;20631;-62
2022/03/02 09:52:45;;;;;;;11.70;7.80;;;;;;;;;;5093977;28;20199;-62
2022/03/02 09:55:13;;;;;;;9.37;6.77;;;;;;;;;;5075759;28;20191;-62
2022/03/02 09:57:50;;;;;;;12.63;7.90;;;;;;;;;;5075662;28;20169;-62
2022/03/02 10:00:18;;;;;;;11.87;7.63;;;;;;;;;;5093596;28;20292;-62
2022/03/02 10:02:46;;;;;;;12.73;8.47;;;;;;;;;;5093747;28;20217;-62
2022/03/02 10:05:15;;;;;;;12.40;8.37;;;;;;;;;;5094024;28;20601;-62
2022/03/02 10:07:45;;;;;;;13.57;9.33;;;;;;;;;;5085531;28;20181;-62
2022/03/02 10:10:13;;;;;;;14.23;8.83;;;;;;;;;;5102505;28;20185;-62
2022/03/02 10:12:40;;;;;;;14.63;8.93;;;;;;;;;;5087513;28;20219;-62
2022/03/02 10:15:08;;;;;;;12.03;9.00;;;;;;;;;;5097624;28;20177;-62
2022/03/02 10:17:35;;;;;;;12.10;8.73;;;;;;;;;;5093911;28;20641;-62
2022/03/02 10:20:06;;;;;;;12.57;7.80;;;;;;;;;;5094299;28;20647;-62
2022/03/02 10:22:38;;;;;;;11.50;7.67;;;;;;;;;;5094490;28;20272;-62
2022/03/02 10:25:08;;;;;;;15.23;9.00;;;;;;;;;;5075496;28;20181;-62
2022/03/02 10:27:36;;;;;;;13.87;8.73;;;;;;;;;;5094702;28;20557;-62
2022/03/02 10:30:06;;;;;;;11.70;7.93;;;;;;;;;;5093546;28;20189;-62
2022/03/02 10:32:35;;;;;;;19.23;9.17;;;;;;;;;;5093479;28;20184;-62
2022/03/02 10:35:08;;;;;;;15.90;8.53;;;;;;;;;;5093801;28;20525;-62
2022/03/02 10:37:52;;;;;;;13.73;8.60;;;;;;;;;;5075609;28;20234;-62
2022/03/02 10:40:23;;;;;;;12.70;8.17;;;;;;;;;;5075792;28;20639;-62
2022/03/02 10:42:49;;;;;;;13.20;9.07;;;;;;;;;;5075419;28;20243;-62
2022/03/02 10:45:17;;;;;;;10.13;7.93;;;;;;;;;;5093629;28;20260;-62
2022/03/02 10:48:02;;;;;;;12.23;8.37;;;;;;;;;;5093349;28;20169;-62
2022/03/02 10:50:29;;;;;;;11.67;8.50;;;;;;;;;;5095605;28;20201;-62
2022/03/02 10:52:56;;;;;;;10.77;8.50;;;;;;;;;;5095866;28;20169;-62
2022/03/02 10:55:22;;;;;;;12.53;8.33;;;;;;;;;;5095795;28;20173;-62
2022/03/02 10:57:49;;;;;;;14.67;7.73;;;;;;;;;;5077008;28;20184;-62
2022/03/02 11:00:17;;;;;;;11.67;8.40;;;;;;;;;;5093936;28;20217;-62
2022/03/02 11:02:48;;;;;;;12.30;8.30;;;;;;;;;;5093849;28;20573;-62
2022/03/02 11:05:15;;;;;;;11.50;8.73;;;;;;;;;;5094001;28;20166;-62
2022/03/02 11:07:42;;;;;;;13.70;8.67;;;;;;;;;;5093682;28;20542;-62
2022/03/02 11:10:10;;;;;;;11.63;8.60;;;;;;;;;;5093500;28;20190;-62
2022/03/02 11:12:41;;;;;;;12.67;8.77;;;;;;;;;;5093601;28;20176;-62
2022/03/02 11:15:07;;;;;;;12.33;7.87;;;;;;;;;;5093713;28;20165;-62
2022/03/02 11:17:34;;;;;;;17.77;10.30;;;;;;;;;;5093222;28;20226;-62
2022/03/02 11:20:08;;;;;;;19.53;10.70;;;;;;;;;;5093937;28;20197;-62
2022/03/02 11:22:34;;;;;;;11.43;8.53;;;;;;;;;;5095887;28;20604;-62
2022/03/02 11:25:00;;;;;;;11.53;8.60;;;;;;;;;;5077154;28;20668;-62
2022/03/02 11:27:40;;;;;;;10.87;8.23;;;;;;;;;;5095622;28;20169;-62
2022/03/02 11:30:09;;;;;;;10.37;8.30;;;;;;;;;;5097092;28;20204;-62
2022/03/02 11:32:36;;;;;;;11.77;7.50;;;;;;;;;;5099460;28;20279;-62
2022/03/02 11:35:03;;;;;;;10.23;7.33;;;;;;;;;;5099849;28;20177;-62
2022/03/02 11:37:33;;;;;;;13.50;8.93;;;;;;;;;;5099874;28;20181;-62
2022/03/02 11:39:59;;;;;;;11.03;8.17;;;;;;;;;;5099217;28;20240;-62
2022/03/02 11:42:30;;;;;;;11.10;8.17;;;;;;;;;;5120955;22;20221;-65
2022/03/02 11:44:57;;;;;;;11.20;8.20;;;;;;;;;;5095960;28;20226;-64
2022/03/02 11:47:24;;;;;;;12.57;8.70;;;;;;;;;;5077801;28;20660;-64
2022/03/02 11:49:50;;;;;;;10.63;7.27;;;;;;;;;;5095805;28;20222;-64
2022/03/02 11:52:19;;;;;;;9.47;7.37;;;;;;;;;;5095741;28;20607;-65
2022/03/02 11:54:53;;;;;;;9.83;7.33;;;;;;;;;;5095725;28;20177;-65
2022/03/02 11:57:20;;;;;;;11.43;7.50;;;;;;;;;;5096119;28;20181;-65
2022/03/02 11:59:47;;;;;;;16.23;8.13;;;;;;;;;;5095705;28;20177;-64
2022/03/02 12:02:18;;;;;;;10.97;7.47;;;;;;;;;;5095493;28;20216;-64
2022/03/02 12:05:03;;;;;;;9.03;7.27;;;;;;;;;;5096003;28;20165;-64
2022/03/02 12:07:37;;;;;;;9.13;7.07;;;;;;;;;;5095973;28;20176;-65
2022/03/02 12:10:03;;;;;;;7.43;6.20;;;;;;;;;;5095753;28;20180;-64
2022/03/02 12:12:29;;;;;;;10.37;6.33;;;;;;;;;;5077210;28;20201;-64
2022/03/02 12:14:56;;;;;;;9.47;6.47;;;;;;;;;;5095757;28;20724;-65
2022/03/02 12:17:24;;;;;;;8.30;6.00;;;;;;;;;;5095408;28;20587;-65
2022/03/02 12:19:54;;;;;;;9.30;6.73;;;;;;;;;;5095286;28;20525;-64
2022/03/02 12:22:21;;;;;;;10.83;6.40;;;;;;;;;;5095732;28;20284;-64
2022/03/02 12:24:47;;;;;;;8.87;5.70;;;;;;;;;;5095077;28;20172;-64
2022/03/02 12:27:15;;;;;;;10.20;7.30;;;;;;;;;;5095574;28;20169;-63
2022/03/02 12:29:41;;;;;;;8.33;6.80;;;;;;;;;;5095204;28;20166;-62
2022/03/02 12:32:14;;;;;;;8.27;6.90;;;;;;;;;;5095026;28;20177;-63
2022/03/02 12:34:42;;;;;;;8.03;6.27;;;;;;;;;;5095174;28;20279;-64
2022/03/02 12:37:09;;;;;;;13.97;6.63;;;;;;;;;;5095349;28;20223;-64
2022/03/02 12:39:35;;;;;;;8.50;6.90;;;;;;;;;;5095167;28;20262;-64
2022/03/02 12:42:07;;;;;;;8.43;6.70;;;;;;;;;;5094157;28;20197;-64
2022/03/02 12:44:35;;;;;;;9.70;7.20;;;;;;;;;;5095193;28;20183;-64
2022/03/02 12:47:03;;;;;;;10.87;6.77;;;;;;;;;;5094948;28;20165;-64
2022/03/02 12:49:30;;;;;;;8.23;6.90;;;;;;;;;;5094823;28;20215;-64
2022/03/02 12:51:56;;;;;;;12.30;7.43;;;;;;;;;;5095081;28;20188;-63
2022/03/02 12:54:23;;;;;;;10.90;7.67;;;;;;;;;;5094814;28;20183;-64
2022/03/02 12:56:50;;;;;;;9.50;7.00;;;;;;;;;;5095114;28;20226;-64
2022/03/02 12:59:17;;;;;;;9.23;6.97;;;;;;;;;;5095057;28;20207;-64
2022/03/02 13:01:43;;;;;;;9.47;7.03;;;;;;;;;;5095076;28;20232;-63
2022/03/02 13:04:11;;;;;;;10.87;7.80;;;;;;;;;;5094442;28;20196;-63
2022/03/02 13:06:38;;;;;;;11.73;7.67;;;;;;;;;;5094694;28;20169;-64
2022/03/02 13:09:06;;;;;;;9.07;6.60;;;;;;;;;;5094981;28;20176;-63
2022/03/02 13:11:32;;;;;;;11.83;7.73;;;;;;;;;;5095518;28;20536;-64
2022/03/02 13:13:58;;;;;;;12.90;7.63;;;;;;;;;;5094383;28;20192;-63
2022/03/02 13:16:28;;;;;;;9.63;7.20;;;;;;;;;;5094780;28;20268;-64
2022/03/02 13:18:55;;;;;;;10.07;7.93;;;;;;;;;;5094414;28;20674;-65
2022/03/02 13:21:26;;;;;;;9.53;7.10;;;;;;;;;;5075965;28;20181;-64
2022/03/02 13:24:08;;;;;;;12.07;8.20;;;;;;;;;;5076371;28;20700;-63
2022/03/02 13:26:36;;;;;;;11.63;7.63;;;;;;;;;;5075907;28;20187;-63
2022/03/02 13:29:12;;;;;;;8.93;6.87;;;;;;;;;;5094129;28;20222;-63
2022/03/02 13:32:10;;;;;;;9.20;7.00;;;;;;;;;;5094789;28;20210;-62
2022/03/02 13:34:37;;;;;;;7.47;6.47;;;;;;;;;;5038903;28;20193;-63
2022/03/02 13:37:03;;;;;;;9.60;7.50;;;;;;;;;;5094252;28;20264;-64
2022/03/02 13:39:30;;;;;;;11.10;7.87;;;;;;;;;;5075593;28;20199;-61
2022/03/02 13:41:57;;;;;;;10.07;7.80;;;;;;;;;;5093573;28;20193;-62
2022/03/02 13:44:26;;;;;;;9.10;7.67;;;;;;;;;;5093840;28;20181;-62
2022/03/02 13:47:13;;;;;;;11.03;7.60;;;;;;;;;;5093519;28;20169;-63
2022/03/02 13:49:46;;;;;;;11.30;7.70;;;;;;;;;;5075469;28;20176;-63
2022/03/02 13:52:12;;;;;;;15.70;8.27;;;;;;;;;;5093229;28;20184;-63
2022/03/02 13:54:38;;;;;;;10.97;8.07;;;;;;;;;;5093507;28;20181;-62
2022/03/02 13:57:04;;;;;;;11.03;7.93;;;;;;;;;;5093669;28;20231;-63
2022/03/02 13:59:30;;;;;;;10.63;7.30;;;;;;;;;;5093342;28;20184;-63
2022/03/02 14:01:56;;;;;;;9.90;7.40;;;;;;;;;;5093134;28;20264;-63
2022/03/02 14:04:23;;;;;;;10.00;7.70;;;;;;;;;;5093275;28;20177;-63
2022/03/02 14:06:56;;;;;;;10.63;8.40;;;;;;;;;;5093803;28;20180;-63
2022/03/02 14:09:22;;;;;;;18.47;8.10;;;;;;;;;;5093217;28;20158;-63
2022/03/02 14:11:49;;;;;;;13.63;8.83;;;;;;;;;;5093477;28;20775;-63
2022/03/02 14:14:17;;;;;;;12.80;8.07;;;;;;;;;;5093242;28;20205;-63
2022/03/02 14:16:52;;;;;;;15.40;8.70;;;;;;;;;;5093285;28;20180;-63
2022/03/02 14:19:18;;;;;;;12.57;9.07;;;;;;;;;;5093072;28;20187;-63
2022/03/02 14:21:53;;;;;;;11.73;8.37;;;;;;;;;;5075624;28;20295;-63
2022/03/02 14:24:19;;;;;;;15.57;9.50;;;;;;;;;;5092911;28;20197;-63
2022/03/02 14:26:55;;;;;;;11.20;7.70;;;;;;;;;;5093617;28;20574;-63
2022/03/02 14:29:22;;;;;;;10.93;8.40;;;;;;;;;;5093213;28;20219;-64